Maersk Danang — A8PS5 — position and weather

sailwx.info

Track history (hours):
 
Tides and Currents Weather Stations Pressure Air Temp Water Temp Dewpoint Dewpoint Depression Visibility Wind Speed Wind Dir Waves Ship Positions

Maersk Danang

Last reported at 2014-Nov-24 15:33 UTC. Time now 2014-Nov-26 17:29 UTC.
Position N 26°11' W 079°29'.

Length 294 m; draft 11.7 m.

Type: Ship (hazmat cat A). MMSI: 636091595.

Date/timePositionNaut miles runAvg speedWind from/ knotsBaromVisibWave heightAir tempDewpointWater temp
2014-Nov-24 15:33N 26°11' W 079°29'1918.7
2014-Nov-24 14:33N 25°55' W 079°40'1817.1
2014-Nov-24 13:31N 25°48' W 079°58'10 1.9
2014-Nov-24 08:07N 25°46' W 080°09'0 0.0
2014-Nov-23 20:15N 25°46' W 080°09'1 1.7
2014-Nov-23 19:33N 25°46' W 080°08'6 6.5
2014-Nov-23 18:33N 25°46' W 080°00'  
2014-Nov-21 01:20N 29°27' W 094°51'912.0
2014-Nov-21 00:33N 29°35' W 094°56'6 6.2
2014-Nov-20 23:31N 29°41' W 095°00'0 0.0
2014-Nov-20 22:33N 29°41' W 095°00'0 0.0
2014-Nov-20 21:33N 29°41' W 095°00'0 0.0
2014-Nov-20 20:32N 29°41' W 095°00'0 0.0
2014-Nov-20 19:32N 29°41' W 095°00'0 0.0
2014-Nov-20 18:32N 29°41' W 095°00'0 0.0
2014-Nov-20 17:31N 29°41' W 095°00'0 0.0
2014-Nov-20 16:31N 29°41' W 095°00'0 0.0
2014-Nov-20 15:33N 29°41' W 095°00'0 0.0
2014-Nov-20 14:33N 29°41' W 095°00'0 0.0
2014-Nov-20 13:32N 29°41' W 095°00'0 0.0
2014-Nov-20 12:32N 29°41' W 095°00'0 0.0
2014-Nov-20 11:32N 29°41' W 095°00'0 0.0
2014-Nov-20 10:31N 29°41' W 095°00'0 0.0
2014-Nov-20 09:28N 29°41' W 095°00'0 0.0
2014-Nov-20 08:33N 29°41' W 095°00'0 0.0
2014-Nov-20 07:33N 29°41' W 095°00'0 0.0
2014-Nov-20 06:32N 29°41' W 095°00'0 0.0
2014-Nov-20 05:32N 29°41' W 095°00'0 0.0
2014-Nov-20 04:32N 29°41' W 095°00'0 0.0
2014-Nov-20 03:31N 29°41' W 095°00'0 0.0
2014-Nov-20 02:31N 29°41' W 095°00'0 0.0
2014-Nov-20 01:33N 29°41' W 095°00'0 0.0
2014-Nov-20 00:33N 29°41' W 095°00'0 0.0
2014-Nov-19 23:26N 29°41' W 095°00'0 0.0
2014-Nov-19 22:32N 29°41' W 095°00'0 0.0
2014-Nov-19 21:32N 29°41' W 095°00'0 0.0
2014-Nov-19 20:33N 29°41' W 095°00'0 0.0
2014-Nov-19 19:31N 29°41' W 095°00'0 0.0
2014-Nov-19 18:33N 29°41' W 095°00'0 0.0
2014-Nov-19 17:33N 29°41' W 095°00'0 0.0
2014-Nov-19 16:32N 29°41' W 095°00'0 0.0
2014-Nov-19 15:32N 29°41' W 095°00'0 0.0
2014-Nov-19 14:32N 29°41' W 095°00'0 0.0
2014-Nov-19 13:31N 29°41' W 095°00'1 1.4
2014-Nov-19 12:33N 29°41' W 094°59'1010.6
2014-Nov-19 11:33N 29°31' W 094°53'82917.3
2014-Nov-17 11:33N 25°13' W 080°07'2117.0
2014-Nov-17 10:21N 25°33' W 080°01'1316.8
2014-Nov-17 09:33N 25°46' W 079°60'1817.8
2014-Nov-17 08:33N 26°04' W 079°58'1818.4
2014-Nov-17 07:33N 26°22' W 079°54'1818.1
2014-Nov-17 06:33N 26°40' W 079°55'1817.6
2014-Nov-17 05:33N 26°58' W 079°54'31217.3
2014-Nov-16 11:34N 32°05' W 080°59'8 7.0
2014-Nov-16 10:21N 32°08' W 081°08'1 0.7
2014-Nov-16 09:33N 32°08' W 081°09'0 0.0
2014-Nov-16 08:33N 32°08' W 081°09'0 0.0
2014-Nov-16 06:32N 32°08' W 081°09'0 0.0
2014-Nov-16 05:25N 32°08' W 081°09'0 0.0
2014-Nov-16 04:28N 32°08' W 081°09'0 0.0
2014-Nov-16 03:34N 32°08' W 081°09'0 0.0
2014-Nov-16 02:33N 32°08' W 081°09'0 0.0
2014-Nov-16 01:27N 32°08' W 081°09'0 0.0
2014-Nov-16 00:23N 32°08' W 081°09'0 0.0
2014-Nov-15 23:32N 32°08' W 081°09'0 0.0
2014-Nov-15 22:33N 32°08' W 081°09'3 2.7
2014-Nov-15 21:33N 32°06' W 081°07'9 8.6
2014-Nov-15 20:33N 32°04' W 080°57'  
Track history (hours):
 
Tides and Currents Weather Stations Pressure Air Temp Water Temp Dewpoint Dewpoint Depression Visibility Wind Speed Wind Dir Waves Ship Positions

Maersk Danang

Last reported at 2014-Nov-24 15:33 UTC. Time now 2014-Nov-26 17:29 UTC.
Position N 26°11' W 079°29'.

Length 294 m; draft 11.7 m.

Type: Ship (hazmat cat A). MMSI: 636091595.

Date/timePositionNaut miles runAvg speedWind from/ knotsBaromVisibWave heightAir tempDewpointWater temp
2014-Nov-24 15:33N 26°11' W 079°29'1918.7
2014-Nov-24 14:33N 25°55' W 079°40'1817.1
2014-Nov-24 13:31N 25°48' W 079°58'10 1.9
2014-Nov-24 08:07N 25°46' W 080°09'0 0.0
2014-Nov-23 20:15N 25°46' W 080°09'1 1.7
2014-Nov-23 19:33N 25°46' W 080°08'6 6.5
2014-Nov-23 18:33N 25°46' W 080°00'  
2014-Nov-21 01:20N 29°27' W 094°51'912.0
2014-Nov-21 00:33N 29°35' W 094°56'6 6.2
2014-Nov-20 23:31N 29°41' W 095°00'0 0.0
2014-Nov-20 22:33N 29°41' W 095°00'0 0.0
2014-Nov-20 21:33N 29°41' W 095°00'0 0.0
2014-Nov-20 20:32N 29°41' W 095°00'0 0.0
2014-Nov-20 19:32N 29°41' W 095°00'0 0.0
2014-Nov-20 18:32N 29°41' W 095°00'0 0.0
2014-Nov-20 17:31N 29°41' W 095°00'0 0.0
2014-Nov-20 16:31N 29°41' W 095°00'0 0.0
2014-Nov-20 15:33N 29°41' W 095°00'0 0.0
2014-Nov-20 14:33N 29°41' W 095°00'0 0.0
2014-Nov-20 13:32N 29°41' W 095°00'0 0.0
2014-Nov-20 12:32N 29°41' W 095°00'0 0.0
2014-Nov-20 11:32N 29°41' W 095°00'0 0.0
2014-Nov-20 10:31N 29°41' W 095°00'0 0.0
2014-Nov-20 09:28N 29°41' W 095°00'0 0.0
2014-Nov-20 08:33N 29°41' W 095°00'0 0.0
2014-Nov-20 07:33N 29°41' W 095°00'0 0.0
2014-Nov-20 06:32N 29°41' W 095°00'0 0.0
2014-Nov-20 05:32N 29°41' W 095°00'0 0.0
2014-Nov-20 04:32N 29°41' W 095°00'0 0.0
2014-Nov-20 03:31N 29°41' W 095°00'0 0.0
2014-Nov-20 02:31N 29°41' W 095°00'0 0.0
2014-Nov-20 01:33N 29°41' W 095°00'0 0.0
2014-Nov-20 00:33N 29°41' W 095°00'0 0.0
2014-Nov-19 23:26N 29°41' W 095°00'0 0.0
2014-Nov-19 22:32N 29°41' W 095°00'0 0.0
2014-Nov-19 21:32N 29°41' W 095°00'0 0.0
2014-Nov-19 20:33N 29°41' W 095°00'0 0.0
2014-Nov-19 19:31N 29°41' W 095°00'0 0.0
2014-Nov-19 18:33N 29°41' W 095°00'0 0.0
2014-Nov-19 17:33N 29°41' W 095°00'0 0.0
2014-Nov-19 16:32N 29°41' W 095°00'0 0.0
2014-Nov-19 15:32N 29°41' W 095°00'0 0.0
2014-Nov-19 14:32N 29°41' W 095°00'0 0.0
2014-Nov-19 13:31N 29°41' W 095°00'1 1.4
2014-Nov-19 12:33N 29°41' W 094°59'1010.6
2014-Nov-19 11:33N 29°31' W 094°53'82917.3
2014-Nov-17 11:33N 25°13' W 080°07'2117.0
2014-Nov-17 10:21N 25°33' W 080°01'1316.8
2014-Nov-17 09:33N 25°46' W 079°60'1817.8
2014-Nov-17 08:33N 26°04' W 079°58'1818.4
2014-Nov-17 07:33N 26°22' W 079°54'1818.1
2014-Nov-17 06:33N 26°40' W 079°55'1817.6
2014-Nov-17 05:33N 26°58' W 079°54'31217.3
2014-Nov-16 11:34N 32°05' W 080°59'8 7.0
2014-Nov-16 10:21N 32°08' W 081°08'1 0.7
2014-Nov-16 09:33N 32°08' W 081°09'0 0.0
2014-Nov-16 08:33N 32°08' W 081°09'0 0.0
2014-Nov-16 06:32N 32°08' W 081°09'0 0.0
2014-Nov-16 05:25N 32°08' W 081°09'0 0.0
2014-Nov-16 04:28N 32°08' W 081°09'0 0.0
2014-Nov-16 03:34N 32°08' W 081°09'0 0.0
2014-Nov-16 02:33N 32°08' W 081°09'0 0.0
2014-Nov-16 01:27N 32°08' W 081°09'0 0.0
2014-Nov-16 00:23N 32°08' W 081°09'0 0.0
2014-Nov-15 23:32N 32°08' W 081°09'0 0.0
2014-Nov-15 22:33N 32°08' W 081°09'3 2.7
2014-Nov-15 21:33N 32°06' W 081°07'9 8.6
2014-Nov-15 20:33N 32°04' W 080°57'  

Dump ship's entire track history